Time;durP1;ratioP1;P1;durP2;ratioP2;P2;SDS_P1;SDS_P2;PMS_P1;PMS_P2;Temp;Humidity;BMP_temperature;BMP_pressure;BME280_temperature;BME280_humidity;BME280_pressure;Samples;Min_cycle;Max_cycle;Signal;HPM_P1;HPM_P2
2021/07/22 00:00:08;;;;;;;4.13;3.53;;;;;;;;;;4960257;28;20187;-86
2021/07/22 00:02:35;;;;;;;3.42;3.05;;;;;;;;;;4960554;28;20216;-86
2021/07/22 00:05:05;;;;;;;3.38;3.08;;;;;;;;;;4960486;28;20209;-86
2021/07/22 00:07:33;;;;;;;3.65;3.35;;;;;;;;;;4961145;28;20271;-87
2021/07/22 00:10:01;;;;;;;3.28;3.08;;;;;;;;;;4979691;28;20900;-86
2021/07/22 00:12:28;;;;;;;4.15;3.75;;;;;;;;;;4979865;28;20211;-87
2021/07/22 00:14:58;;;;;;;3.15;2.80;;;;;;;;;;4979663;28;20206;-88
2021/07/22 00:17:25;;;;;;;3.10;2.90;;;;;;;;;;4976984;28;20231;-87
2021/07/22 00:19:54;;;;;;;5.10;3.78;;;;;;;;;;4969323;28;20572;-87
2021/07/22 00:22:21;;;;;;;2.88;2.67;;;;;;;;;;4957091;29;20193;-87
2021/07/22 00:24:50;;;;;;;3.20;2.90;;;;;;;;;;4956879;29;20220;-86
2021/07/22 00:27:17;;;;;;;2.90;2.70;;;;;;;;;;4957501;28;20229;-86
2021/07/22 00:29:46;;;;;;;2.90;2.70;;;;;;;;;;4960676;28;20221;-86
2021/07/22 00:32:13;;;;;;;3.50;2.80;;;;;;;;;;4976577;28;20185;-87
2021/07/22 00:34:44;;;;;;;3.15;2.95;;;;;;;;;;4976443;28;20181;-87
2021/07/22 00:37:12;;;;;;;4.20;2.88;;;;;;;;;;4969929;28;20224;-85
2021/07/22 00:39:39;;;;;;;3.17;2.88;;;;;;;;;;4956770;28;20209;-85
2021/07/22 00:42:10;;;;;;;3.40;3.10;;;;;;;;;;4956563;29;20181;-85
2021/07/22 00:44:37;;;;;;;3.63;2.85;;;;;;;;;;4956247;28;20228;-86
2021/07/22 00:47:05;;;;;;;2.67;2.47;;;;;;;;;;4956636;28;20229;-86
2021/07/22 00:49:34;;;;;;;3.78;3.42;;;;;;;;;;4973365;28;20204;-88
2021/07/22 00:52:03;;;;;;;3.70;3.00;;;;;;;;;;4957020;28;20193;-86
2021/07/22 00:54:32;;;;;;;4.82;3.05;;;;;;;;;;4956430;28;20212;-87
2021/07/22 00:57:00;;;;;;;2.95;2.70;;;;;;;;;;4956846;28;20204;-86
2021/07/22 00:59:31;;;;;;;3.20;2.75;;;;;;;;;;4972555;28;20208;-86
2021/07/22 01:01:58;;;;;;;3.40;2.80;;;;;;;;;;4975719;28;20212;-86
2021/07/22 01:04:31;;;;;;;3.25;2.92;;;;;;;;;;4976111;28;20208;-86
2021/07/22 01:06:59;;;;;;;3.17;2.88;;;;;;;;;;4975787;28;20192;-86
2021/07/22 01:09:33;;;;;;;3.20;2.63;;;;;;;;;;4957835;28;20263;-86
2021/07/22 01:12:07;;;;;;;4.25;3.38;;;;;;;;;;4956782;28;20208;-87
2021/07/22 01:14:38;;;;;;;3.33;3.03;;;;;;;;;;4956223;29;20181;-88
2021/07/22 01:17:15;;;;;;;3.78;3.03;;;;;;;;;;4955535;28;20240;-87
2021/07/22 01:19:42;;;;;;;3.17;2.88;;;;;;;;;;4973830;28;20207;-87
2021/07/22 01:22:12;;;;;;;2.85;2.55;;;;;;;;;;4975240;28;20563;-87
2021/07/22 01:24:40;;;;;;;3.10;2.75;;;;;;;;;;4975539;28;20227;-86
2021/07/22 01:27:11;;;;;;;2.92;2.60;;;;;;;;;;4975290;28;20586;-86
2021/07/22 01:29:39;;;;;;;2.85;2.65;;;;;;;;;;4957525;28;20248;-87
2021/07/22 01:32:08;;;;;;;3.58;3.22;;;;;;;;;;4946773;28;20586;-86
2021/07/22 01:34:36;;;;;;;6.05;5.20;;;;;;;;;;4937450;29;20183;-87
2021/07/22 01:37:04;;;;;;;4.30;3.90;;;;;;;;;;4936728;29;20680;-88
2021/07/22 01:39:34;;;;;;;4.28;3.88;;;;;;;;;;4969242;28;20200;-86
2021/07/22 01:42:01;;;;;;;3.50;3.13;;;;;;;;;;4936894;29;20194;-87
2021/07/22 01:44:29;;;;;;;4.57;3.67;;;;;;;;;;4936751;29;20290;-87
2021/07/22 01:46:57;;;;;;;4.28;3.42;;;;;;;;;;4936706;29;20212;-87
2021/07/22 01:49:25;;;;;;;3.67;3.25;;;;;;;;;;4936491;29;20210;-87
2021/07/22 01:51:54;;;;;;;3.67;3.38;;;;;;;;;;4936189;29;20210;-86
2021/07/22 01:54:23;;;;;;;3.80;3.35;;;;;;;;;;4936515;29;20190;-87
2021/07/22 01:56:52;;;;;;;2.83;2.55;;;;;;;;;;4936422;29;20209;-87
2021/07/22 01:59:19;;;;;;;3.42;3.13;;;;;;;;;;4936448;29;20200;-87
2021/07/22 02:01:47;;;;;;;3.90;3.55;;;;;;;;;;4936339;29;20645;-87
2021/07/22 02:04:15;;;;;;;3.17;2.88;;;;;;;;;;4936388;29;20225;-86
2021/07/22 02:06:43;;;;;;;3.78;3.42;;;;;;;;;;4936178;29;20205;-87
2021/07/22 02:09:10;;;;;;;4.65;3.15;;;;;;;;;;4936494;29;20202;-86
2021/07/22 02:11:38;;;;;;;3.80;3.40;;;;;;;;;;4935025;29;20201;-88
2021/07/22 02:14:07;;;;;;;3.30;3.00;;;;;;;;;;4935964;29;20233;-86
2021/07/22 02:16:35;;;;;;;3.08;2.88;;;;;;;;;;4936577;29;20190;-86
2021/07/22 02:19:22;;;;;;;4.93;3.35;;;;;;;;;;4936328;29;20225;-87
2021/07/22 02:21:50;;;;;;;4.20;3.65;;;;;;;;;;4935724;29;20190;-86
2021/07/22 02:24:18;;;;;;;3.83;3.53;;;;;;;;;;4935999;29;20237;-86
2021/07/22 02:26:46;;;;;;;4.50;3.38;;;;;;;;;;4936086;29;20557;-87
2021/07/22 02:29:17;;;;;;;4.30;3.60;;;;;;;;;;4935924;29;20648;-87
2021/07/22 02:31:44;;;;;;;3.90;3.42;;;;;;;;;;4935888;29;20182;-87
2021/07/22 02:34:12;;;;;;;3.35;3.05;;;;;;;;;;4936225;29;20193;-86
2021/07/22 02:36:39;;;;;;;3.38;3.08;;;;;;;;;;4936082;29;20194;-86
2021/07/22 02:39:06;;;;;;;3.45;3.15;;;;;;;;;;4936045;29;20226;-86
2021/07/22 02:41:35;;;;;;;3.88;3.38;;;;;;;;;;4966186;28;20251;-87
2021/07/22 02:44:02;;;;;;;3.22;2.95;;;;;;;;;;4974062;28;20185;-86
2021/07/22 02:46:31;;;;;;;3.28;2.97;;;;;;;;;;4974006;28;20204;-86
2021/07/22 02:49:00;;;;;;;3.20;2.90;;;;;;;;;;4974129;28;20220;-87
2021/07/22 02:51:28;;;;;;;2.80;2.55;;;;;;;;;;4974386;28;20259;-87
2021/07/22 02:53:56;;;;;;;2.88;2.67;;;;;;;;;;4974611;28;20211;-87
2021/07/22 02:56:25;;;;;;;3.70;2.88;;;;;;;;;;4974117;28;20215;-86
2021/07/22 02:58:53;;;;;;;3.63;3.33;;;;;;;;;;4973978;28;20232;-84
2021/07/22 03:01:21;;;;;;;3.08;2.53;;;;;;;;;;4974538;28;20195;-85
2021/07/22 03:03:49;;;;;;;3.85;3.47;;;;;;;;;;4974438;28;20185;-86
2021/07/22 03:06:17;;;;;;;4.57;3.00;;;;;;;;;;4974288;28;20228;-85
2021/07/22 03:08:46;;;;;;;3.50;3.13;;;;;;;;;;4973666;28;20228;-85
2021/07/22 03:11:13;;;;;;;3.50;3.20;;;;;;;;;;4973451;28;20216;-85
2021/07/22 03:13:41;;;;;;;3.53;3.08;;;;;;;;;;4973451;28;20185;-84
2021/07/22 03:16:09;;;;;;;4.28;3.60;;;;;;;;;;4974105;28;20188;-85
2021/07/22 03:18:36;;;;;;;2.78;2.55;;;;;;;;;;4973375;28;20227;-86
2021/07/22 03:21:05;;;;;;;2.38;2.17;;;;;;;;;;4973952;28;20189;-85
2021/07/22 03:23:33;;;;;;;3.05;2.75;;;;;;;;;;4973883;28;20577;-85
2021/07/22 03:26:00;;;;;;;3.20;2.90;;;;;;;;;;4973754;28;20707;-85
2021/07/22 03:28:28;;;;;;;3.45;2.83;;;;;;;;;;4973789;28;20226;-85
2021/07/22 03:30:56;;;;;;;3.47;3.17;;;;;;;;;;4973748;28;20786;-85
2021/07/22 03:33:23;;;;;;;3.40;3.10;;;;;;;;;;4973895;28;20208;-85
2021/07/22 03:35:51;;;;;;;4.30;3.28;;;;;;;;;;4973503;28;20204;-86
2021/07/22 03:38:19;;;;;;;2.70;2.50;;;;;;;;;;4973518;28;20702;-85
2021/07/22 03:40:47;;;;;;;2.90;2.65;;;;;;;;;;4973659;28;20235;-85
2021/07/22 03:43:14;;;;;;;2.88;2.67;;;;;;;;;;4964579;28;20197;-85
2021/07/22 03:45:43;;;;;;;2.60;2.40;;;;;;;;;;4954786;28;20227;-85
2021/07/22 03:48:12;;;;;;;3.22;2.90;;;;;;;;;;4953973;28;20216;-85
2021/07/22 03:50:40;;;;;;;2.83;2.60;;;;;;;;;;4954470;29;20189;-85
2021/07/22 03:53:08;;;;;;;2.78;2.58;;;;;;;;;;4955810;28;20208;-85
2021/07/22 03:55:40;;;;;;;3.00;2.75;;;;;;;;;;4960341;28;20205;-85
2021/07/22 03:58:07;;;;;;;3.22;2.90;;;;;;;;;;4961206;28;20716;-85
2021/07/22 04:00:35;;;;;;;3.42;2.85;;;;;;;;;;4969306;28;20185;-85
2021/07/22 04:03:04;;;;;;;3.05;2.75;;;;;;;;;;4958947;29;20196;-85
2021/07/22 04:05:32;;;;;;;3.70;3.10;;;;;;;;;;4957667;29;20209;-85
2021/07/22 04:08:00;;;;;;;3.15;2.85;;;;;;;;;;4960969;28;20221;-84
2021/07/22 04:10:29;;;;;;;3.42;2.70;;;;;;;;;;4976145;28;20185;-85
2021/07/22 04:12:59;;;;;;;2.83;2.60;;;;;;;;;;4976809;28;20181;-84
2021/07/22 04:15:28;;;;;;;3.67;3.33;;;;;;;;;;4977200;28;20189;-85
2021/07/22 04:17:56;;;;;;;3.58;3.25;;;;;;;;;;4969844;28;20228;-84
2021/07/22 04:20:26;;;;;;;3.20;2.95;;;;;;;;;;4957640;29;20197;-85
2021/07/22 04:22:55;;;;;;;2.60;2.40;;;;;;;;;;4957342;29;20188;-84
2021/07/22 04:25:23;;;;;;;1.90;1.70;;;;;;;;;;4957080;29;20215;-85
2021/07/22 04:27:50;;;;;;;2.15;1.95;;;;;;;;;;4960037;28;20223;-85
2021/07/22 04:30:19;;;;;;;2.88;2.30;;;;;;;;;;4976915;28;20199;-84
2021/07/22 04:32:46;;;;;;;3.38;3.08;;;;;;;;;;4976711;28;20227;-85
2021/07/22 04:35:14;;;;;;;2.28;2.08;;;;;;;;;;4976627;28;20192;-85
2021/07/22 04:37:43;;;;;;;2.10;1.90;;;;;;;;;;4974145;28;20737;-85
2021/07/22 04:40:11;;;;;;;1.90;1.80;;;;;;;;;;4959663;28;20248;-86
2021/07/22 04:42:38;;;;;;;2.13;2.00;;;;;;;;;;4975998;28;20215;-85
2021/07/22 04:45:07;;;;;;;2.13;1.98;;;;;;;;;;4980107;28;20191;-85
2021/07/22 04:47:36;;;;;;;1.73;1.63;;;;;;;;;;4976002;28;20236;-85
2021/07/22 04:50:04;;;;;;;2.35;2.15;;;;;;;;;;4976196;28;20181;-85
2021/07/22 04:52:31;;;;;;;3.53;2.65;;;;;;;;;;4976152;28;20189;-85
2021/07/22 04:54:58;;;;;;;2.95;2.75;;;;;;;;;;4976865;28;20211;-83
2021/07/22 04:57:32;;;;;;;2.95;2.65;;;;;;;;;;4976219;28;20227;-84
2021/07/22 05:00:00;;;;;;;2.33;2.13;;;;;;;;;;4976497;28;20750;-83
2021/07/22 05:02:29;;;;;;;4.32;2.80;;;;;;;;;;4976203;28;20204;-83
2021/07/22 05:05:06;;;;;;;3.03;2.60;;;;;;;;;;4976100;28;20212;-83
2021/07/22 05:07:35;;;;;;;3.38;3.08;;;;;;;;;;4975750;28;20228;-84
2021/07/22 05:11:13;;;;;;;4.45;4.05;;;;;;;;;;4976126;28;20204;-83
2021/07/22 05:13:53;;;;;;;3.55;3.25;;;;;;;;;;4976663;28;20636;-83
2021/07/22 05:16:24;;;;;;;2.97;2.70;;;;;;;;;;4975964;28;20188;-83
2021/07/22 05:19:03;;;;;;;3.15;2.78;;;;;;;;;;4976045;28;20216;-83
2021/07/22 05:21:43;;;;;;;3.50;3.20;;;;;;;;;;4976116;28;20681;-83
2021/07/22 05:24:12;;;;;;;2.92;2.60;;;;;;;;;;4976553;28;20180;-83
2021/07/22 05:26:46;;;;;;;3.58;2.80;;;;;;;;;;4976285;28;20227;-84
2021/07/22 05:29:13;;;;;;;2.72;2.53;;;;;;;;;;4974501;28;20199;-86
2021/07/22 05:31:42;;;;;;;2.85;2.65;;;;;;;;;;4974764;28;20207;-83
2021/07/22 05:34:09;;;;;;;3.88;3.55;;;;;;;;;;4974640;28;20634;-84
2021/07/22 05:36:37;;;;;;;4.65;4.15;;;;;;;;;;4975075;28;20204;-83
2021/07/22 05:39:06;;;;;;;4.35;3.70;;;;;;;;;;4974688;28;20231;-84
2021/07/22 05:41:33;;;;;;;4.38;3.97;;;;;;;;;;4974993;28;20246;-84
2021/07/22 05:44:01;;;;;;;3.70;3.28;;;;;;;;;;4975237;28;20208;-83
2021/07/22 05:46:30;;;;;;;3.90;3.50;;;;;;;;;;4974992;28;20224;-84
2021/07/22 05:48:57;;;;;;;4.28;3.88;;;;;;;;;;4975315;28;20695;-83
2021/07/22 05:51:24;;;;;;;3.55;3.25;;;;;;;;;;4974916;28;20215;-83
2021/07/22 05:53:52;;;;;;;4.90;4.35;;;;;;;;;;4975400;28;20200;-83
2021/07/22 05:56:21;;;;;;;3.83;3.17;;;;;;;;;;4975010;28;20185;-83
2021/07/22 05:58:51;;;;;;;3.58;3.28;;;;;;;;;;4984918;28;20308;-86
2021/07/22 06:01:19;;;;;;;4.47;3.55;;;;;;;;;;4986255;28;20188;-88
2021/07/22 06:03:46;;;;;;;3.97;3.22;;;;;;;;;;4983007;28;20203;-89
2021/07/22 06:06:14;;;;;;;3.53;3.20;;;;;;;;;;4985748;28;20199;-85
2021/07/22 06:08:41;;;;;;;4.07;3.50;;;;;;;;;;4984437;28;20224;-83
2021/07/22 06:11:12;;;;;;;4.53;3.95;;;;;;;;;;4982902;28;20207;-83
2021/07/22 06:13:41;;;;;;;3.70;3.30;;;;;;;;;;4981878;28;20200;-84
2021/07/22 06:16:14;;;;;;;4.28;3.00;;;;;;;;;;4982326;28;20212;-84
2021/07/22 06:18:43;;;;;;;4.10;3.70;;;;;;;;;;4979270;28;20599;-85
2021/07/22 06:21:14;;;;;;;3.33;2.97;;;;;;;;;;4973105;28;20715;-84
2021/07/22 06:23:45;;;;;;;2.60;2.40;;;;;;;;;;4955008;29;20208;-85
2021/07/22 06:26:13;;;;;;;4.03;3.00;;;;;;;;;;4954575;29;20579;-84
2021/07/22 06:28:42;;;;;;;3.90;3.10;;;;;;;;;;4954075;28;20236;-84
2021/07/22 06:31:09;;;;;;;3.70;3.40;;;;;;;;;;4958230;29;20211;-85
2021/07/22 06:33:36;;;;;;;3.90;3.55;;;;;;;;;;4958576;29;20197;-83
2021/07/22 06:36:04;;;;;;;4.65;4.18;;;;;;;;;;4956015;29;20561;-84
2021/07/22 06:38:33;;;;;;;4.32;3.45;;;;;;;;;;4953147;28;20225;-84
2021/07/22 06:41:00;;;;;;;5.13;4.63;;;;;;;;;;4953450;28;20244;-84
2021/07/22 06:43:30;;;;;;;3.80;3.50;;;;;;;;;;4956441;29;20209;-83
2021/07/22 06:45:58;;;;;;;4.07;3.67;;;;;;;;;;4955595;29;20619;-88
2021/07/22 06:48:26;;;;;;;3.95;3.55;;;;;;;;;;4953642;28;20237;-85
2021/07/22 06:50:54;;;;;;;3.03;2.72;;;;;;;;;;4954624;29;20224;-85
2021/07/22 06:53:22;;;;;;;3.97;3.33;;;;;;;;;;4956143;29;20182;-85
2021/07/22 06:55:52;;;;;;;3.92;3.53;;;;;;;;;;4958352;29;20207;-84
2021/07/22 06:58:20;;;;;;;4.78;4.25;;;;;;;;;;4953929;28;20229;-85
2021/07/22 07:00:47;;;;;;;4.85;4.13;;;;;;;;;;4953807;29;20209;-84
2021/07/22 07:03:16;;;;;;;4.80;4.30;;;;;;;;;;4953548;29;20637;-85
2021/07/22 07:05:43;;;;;;;3.40;3.10;;;;;;;;;;4953847;29;20200;-84
2021/07/22 07:08:11;;;;;;;3.83;3.42;;;;;;;;;;4953034;28;20386;-83
2021/07/22 07:10:38;;;;;;;3.92;3.55;;;;;;;;;;4954374;29;20313;-85
2021/07/22 07:13:06;;;;;;;4.47;4.03;;;;;;;;;;4953512;29;20205;-83
2021/07/22 07:15:33;;;;;;;4.20;3.80;;;;;;;;;;4952968;29;20660;-85
2021/07/22 07:18:04;;;;;;;3.40;3.10;;;;;;;;;;4953258;28;20224;-85
2021/07/22 07:20:34;;;;;;;4.25;3.85;;;;;;;;;;4953141;29;20285;-84
2021/07/22 07:23:01;;;;;;;4.80;4.40;;;;;;;;;;4954618;29;20219;-85
2021/07/22 07:25:35;;;;;;;5.32;4.82;;;;;;;;;;4951229;28;20726;-84
2021/07/22 07:28:05;;;;;;;3.65;3.35;;;;;;;;;;4958297;28;20228;-84
2021/07/22 07:30:54;;;;;;;5.40;4.28;;;;;;;;;;4958586;29;20189;-84
2021/07/22 07:33:40;;;;;;;3.60;3.30;;;;;;;;;;4958790;29;20208;-84
2021/07/22 07:36:11;;;;;;;3.83;3.47;;;;;;;;;;4958015;29;20211;-84
2021/07/22 07:38:55;;;;;;;3.65;3.30;;;;;;;;;;4958118;28;20228;-84
2021/07/22 07:41:25;;;;;;;2.92;2.70;;;;;;;;;;4959121;28;20241;-87
2021/07/22 07:43:54;;;;;;;2.58;2.38;;;;;;;;;;4977618;28;20219;-84
2021/07/22 07:46:21;;;;;;;3.50;3.20;;;;;;;;;;4977568;28;20204;-85
2021/07/22 07:48:56;;;;;;;5.10;4.43;;;;;;;;;;4977531;28;20879;-84
2021/07/22 07:51:42;;;;;;;3.53;3.22;;;;;;;;;;4977545;28;20195;-84
2021/07/22 07:54:22;;;;;;;3.83;3.35;;;;;;;;;;4977428;28;20215;-85
2021/07/22 07:57:01;;;;;;;4.03;3.72;;;;;;;;;;4977454;28;20199;-86
2021/07/22 07:59:43;;;;;;;3.53;3.22;;;;;;;;;;4977387;28;20191;-84
2021/07/22 08:02:15;;;;;;;5.28;4.78;;;;;;;;;;4976899;28;20197;-84
2021/07/22 08:05:11;;;;;;;4.32;3.92;;;;;;;;;;4977562;28;20189;-84
2021/07/22 08:07:40;;;;;;;3.65;3.35;;;;;;;;;;4976421;28;20242;-84
2021/07/22 08:10:13;;;;;;;4.07;3.67;;;;;;;;;;4976716;28;20219;-84
2021/07/22 08:12:53;;;;;;;4.72;4.00;;;;;;;;;;4977702;28;20200;-83
2021/07/22 08:15:23;;;;;;;4.63;4.03;;;;;;;;;;4977102;28;20197;-83
2021/07/22 08:17:51;;;;;;;4.70;4.15;;;;;;;;;;4976917;28;20220;-84
2021/07/22 08:20:19;;;;;;;5.07;4.13;;;;;;;;;;4977282;28;20226;-84
2021/07/22 08:22:49;;;;;;;4.88;4.47;;;;;;;;;;4977291;28;20204;-84
2021/07/22 08:25:17;;;;;;;3.83;3.45;;;;;;;;;;4977703;28;20181;-84
2021/07/22 08:28:03;;;;;;;4.45;4.05;;;;;;;;;;4976659;28;20228;-85
2021/07/22 08:30:32;;;;;;;4.20;3.80;;;;;;;;;;4976176;28;20215;-84
2021/07/22 08:33:02;;;;;;;4.88;4.20;;;;;;;;;;4976978;28;20220;-87
2021/07/22 08:35:35;;;;;;;5.20;4.70;;;;;;;;;;4977043;28;20197;-83
2021/07/22 08:38:08;;;;;;;3.60;3.30;;;;;;;;;;4976044;28;20220;-85
2021/07/22 08:40:36;;;;;;;3.70;3.40;;;;;;;;;;4966694;28;20232;-84
2021/07/22 08:43:06;;;;;;;3.17;2.88;;;;;;;;;;4977231;28;20200;-84
2021/07/22 08:45:41;;;;;;;4.75;4.20;;;;;;;;;;4977252;28;20625;-85
2021/07/22 08:48:16;;;;;;;5.13;3.60;;;;;;;;;;4976794;28;20306;-85
2021/07/22 08:50:46;;;;;;;4.95;4.22;;;;;;;;;;4957508;29;20189;-84
2021/07/22 08:53:20;;;;;;;4.05;3.65;;;;;;;;;;4974131;28;20623;-85
2021/07/22 08:55:58;;;;;;;4.28;3.88;;;;;;;;;;4978724;28;20652;-85
2021/07/22 08:58:28;;;;;;;4.80;4.20;;;;;;;;;;4977359;28;20687;-84
2021/07/22 09:00:58;;;;;;;6.95;3.72;;;;;;;;;;4976818;28;20193;-84
2021/07/22 09:03:34;;;;;;;4.78;4.20;;;;;;;;;;4976485;28;20583;-85
2021/07/22 09:06:21;;;;;;;4.82;4.32;;;;;;;;;;4976362;28;20181;-84
2021/07/22 09:08:51;;;;;;;4.22;3.30;;;;;;;;;;4976027;28;20830;-84
2021/07/22 09:11:20;;;;;;;4.07;3.53;;;;;;;;;;4975932;28;20188;-84
2021/07/22 09:14:09;;;;;;;3.65;3.35;;;;;;;;;;4956444;29;20192;-82
2021/07/22 09:16:38;;;;;;;3.28;2.97;;;;;;;;;;4956963;29;20201;-82
2021/07/22 09:19:08;;;;;;;2.75;2.55;;;;;;;;;;4957453;28;20224;-82
2021/07/22 09:21:41;;;;;;;3.55;3.25;;;;;;;;;;4968947;28;20239;-82
2021/07/22 09:24:16;;;;;;;4.32;3.92;;;;;;;;;;4976396;28;20200;-82
2021/07/22 09:26:51;;;;;;;3.78;3.30;;;;;;;;;;4976533;28;20198;-82
2021/07/22 09:29:27;;;;;;;2.88;2.67;;;;;;;;;;4977309;28;20251;-83
2021/07/22 09:32:05;;;;;;;2.88;2.65;;;;;;;;;;4976572;28;20196;-83
2021/07/22 09:34:33;;;;;;;3.50;3.20;;;;;;;;;;4975986;28;20181;-83
2021/07/22 09:37:10;;;;;;;3.55;3.25;;;;;;;;;;4975864;28;20193;-83
2021/07/22 09:39:50;;;;;;;5.15;4.13;;;;;;;;;;4975844;28;20776;-83
2021/07/22 09:42:25;;;;;;;3.30;3.00;;;;;;;;;;4975477;28;20228;-83
2021/07/22 09:44:57;;;;;;;3.33;3.03;;;;;;;;;;4977008;28;20184;-82
2021/07/22 09:47:28;;;;;;;3.70;3.40;;;;;;;;;;4976347;28;20224;-86
2021/07/22 09:50:05;;;;;;;3.60;3.30;;;;;;;;;;4975401;28;20213;-83
2021/07/22 09:52:32;;;;;;;3.63;3.33;;;;;;;;;;4975110;28;20565;-83
2021/07/22 09:55:25;;;;;;;4.18;3.78;;;;;;;;;;4975345;28;20204;-83
2021/07/22 09:57:56;;;;;;;3.63;3.33;;;;;;;;;;4975407;28;20246;-83
2021/07/22 10:00:33;;;;;;;5.88;5.28;;;;;;;;;;4975558;28;20188;-82
2021/07/22 10:03:03;;;;;;;3.88;3.58;;;;;;;;;;4975371;28;20275;-82
2021/07/22 10:05:34;;;;;;;3.75;3.45;;;;;;;;;;4975177;28;20640;-84
2021/07/22 10:08:19;;;;;;;3.40;3.10;;;;;;;;;;4975453;28;20295;-83
2021/07/22 10:10:56;;;;;;;3.75;3.40;;;;;;;;;;4975747;28;20251;-82
2021/07/22 10:13:35;;;;;;;2.30;2.10;;;;;;;;;;4976341;28;20653;-82
2021/07/22 10:16:25;;;;;;;3.47;2.90;;;;;;;;;;4974977;28;20193;-84
2021/07/22 10:19:12;;;;;;;4.28;2.97;;;;;;;;;;4975214;28;20727;-86
2021/07/22 10:25:41;;;;;;;3.30;3.03;;;;;;;;;;4975182;28;20242;-83
2021/07/22 10:28:28;;;;;;;2.97;2.78;;;;;;;;;;4975374;28;20376;-84
2021/07/22 10:31:09;;;;;;;2.83;2.63;;;;;;;;;;4955615;29;20201;-84
2021/07/22 10:33:41;;;;;;;3.22;2.95;;;;;;;;;;4956579;29;20195;-85
2021/07/22 10:36:23;;;;;;;4.03;3.60;;;;;;;;;;4956369;29;20197;-84
2021/07/22 10:39:07;;;;;;;3.72;3.40;;;;;;;;;;4961563;28;20212;-83
2021/07/22 10:41:40;;;;;;;3.00;2.72;;;;;;;;;;4975249;28;20324;-86
2021/07/22 10:45:04;;;;;;;3.28;2.97;;;;;;;;;;4975319;28;20667;-86
2021/07/22 10:48:08;;;;;;;3.97;3.17;;;;;;;;;;4974983;28;20717;-86
2021/07/22 10:51:06;;;;;;;3.50;3.20;;;;;;;;;;4975069;28;20754;-83
2021/07/22 10:53:55;;;;;;;3.75;3.38;;;;;;;;;;4975174;28;20784;-84
2021/07/22 10:56:53;;;;;;;4.93;4.45;;;;;;;;;;4974811;28;20196;-84
2021/07/22 10:59:56;;;;;;;3.53;3.22;;;;;;;;;;4975348;28;20208;-85
2021/07/22 11:02:52;;;;;;;3.17;2.85;;;;;;;;;;4974503;28;20188;-84
2021/07/22 11:06:22;;;;;;;4.28;3.88;;;;;;;;;;4975227;28;20240;-87
2021/07/22 11:09:43;;;;;;;3.20;2.90;;;;;;;;;;4975556;28;20714;-84
2021/07/22 11:12:45;;;;;;;3.17;2.88;;;;;;;;;;4975098;28;20187;-86
2021/07/22 11:16:02;;;;;;;5.10;4.45;;;;;;;;;;4960756;28;20210;-85
2021/07/22 11:22:14;;;;;;;2.42;2.22;;;;;;;;;;4939946;28;20231;-85
2021/07/22 11:24:46;;;;;;;2.53;2.33;;;;;;;;;;4974504;28;20204;-83
2021/07/22 11:27:14;;;;;;;3.00;2.80;;;;;;;;;;4974202;28;20302;-90
2021/07/22 11:30:10;;;;;;;3.03;2.83;;;;;;;;;;4974092;28;20635;-84
2021/07/22 11:32:41;;;;;;;2.50;2.30;;;;;;;;;;4973810;28;20283;-85
2021/07/22 11:35:10;;;;;;;2.65;2.45;;;;;;;;;;4974035;28;20370;-85
2021/07/22 11:38:12;;;;;;;3.05;2.75;;;;;;;;;;4974123;28;20234;-84
2021/07/22 11:40:42;;;;;;;2.03;1.90;;;;;;;;;;4969019;28;20228;-85
2021/07/22 11:43:12;;;;;;;2.13;2.00;;;;;;;;;;4955767;29;20675;-86
2021/07/22 11:45:44;;;;;;;2.67;2.47;;;;;;;;;;4957135;29;20209;-85
2021/07/22 11:48:27;;;;;;;2.60;2.40;;;;;;;;;;4954918;28;20239;-85
2021/07/22 11:51:02;;;;;;;2.65;1.75;;;;;;;;;;4942562;29;20232;-84
2021/07/22 11:54:05;;;;;;;2.70;2.50;;;;;;;;;;4934643;29;20182;-85
2021/07/22 11:56:57;;;;;;;2.65;2.45;;;;;;;;;;4935484;29;20206;-84
2021/07/22 11:59:34;;;;;;;1.85;1.75;;;;;;;;;;4935871;29;20210;-88
2021/07/22 12:02:10;;;;;;;2.45;2.30;;;;;;;;;;4935980;29;20186;-86
2021/07/22 12:04:39;;;;;;;2.40;2.20;;;;;;;;;;4936510;29;20194;-84
2021/07/22 12:07:13;;;;;;;3.28;2.67;;;;;;;;;;4935502;29;20197;-83
2021/07/22 12:09:57;;;;;;;2.63;2.42;;;;;;;;;;4935632;29;20185;-83
2021/07/22 12:12:26;;;;;;;2.53;2.33;;;;;;;;;;4937071;29;20183;-85
2021/07/22 12:15:08;;;;;;;2.33;2.15;;;;;;;;;;4939228;29;20209;-85
2021/07/22 12:17:39;;;;;;;2.83;2.60;;;;;;;;;;4938910;29;20229;-85
2021/07/22 12:20:09;;;;;;;2.53;2.33;;;;;;;;;;4939074;29;20204;-84
2021/07/22 12:22:44;;;;;;;2.85;2.65;;;;;;;;;;4939388;29;20200;-85
2021/07/22 12:25:17;;;;;;;2.40;2.20;;;;;;;;;;4939383;29;20559;-83
2021/07/22 12:28:44;;;;;;;3.00;2.80;;;;;;;;;;4939113;29;20285;-83
2021/07/22 12:31:20;;;;;;;2.70;2.50;;;;;;;;;;4907485;29;20229;-84
2021/07/22 12:34:06;;;;;;;3.10;2.80;;;;;;;;;;4940132;29;20208;-84
2021/07/22 12:36:52;;;;;;;2.47;2.28;;;;;;;;;;4939144;29;20188;-83
2021/07/22 12:39:32;;;;;;;2.90;2.70;;;;;;;;;;4939923;29;20186;-84
2021/07/22 12:42:11;;;;;;;2.45;2.20;;;;;;;;;;4969891;28;20236;-84
2021/07/22 12:44:44;;;;;;;3.08;2.83;;;;;;;;;;4977677;28;20181;-85
2021/07/22 12:47:49;;;;;;;2.65;2.45;;;;;;;;;;4978890;28;20216;-84
2021/07/22 12:50:39;;;;;;;3.50;2.83;;;;;;;;;;4978741;28;20307;-84
2021/07/22 12:53:17;;;;;;;2.75;2.55;;;;;;;;;;4976981;28;20216;-85
2021/07/22 12:55:59;;;;;;;2.55;2.38;;;;;;;;;;4978616;28;20580;-84
2021/07/22 12:58:28;;;;;;;2.78;2.58;;;;;;;;;;4977388;28;20283;-84
2021/07/22 13:01:19;;;;;;;2.50;2.30;;;;;;;;;;4976894;28;20203;-83
2021/07/22 13:03:49;;;;;;;2.60;2.40;;;;;;;;;;4978956;28;20256;-83
2021/07/22 13:07:26;;;;;;;2.78;2.58;;;;;;;;;;4977498;28;20207;-87
2021/07/22 13:09:58;;;;;;;2.20;2.00;;;;;;;;;;4976769;28;20227;-85
2021/07/22 13:12:59;;;;;;;1.65;1.55;;;;;;;;;;4977889;28;20267;-86
2021/07/22 13:15:31;;;;;;;2.70;2.50;;;;;;;;;;4976711;28;20204;-84
2021/07/22 13:18:35;;;;;;;2.47;2.28;;;;;;;;;;4976442;28;20220;-85
2021/07/22 13:21:17;;;;;;;2.38;2.15;;;;;;;;;;4976893;28;20231;-85
2021/07/22 13:24:12;;;;;;;2.50;2.30;;;;;;;;;;4975684;28;20624;-85
2021/07/22 13:26:41;;;;;;;2.25;2.08;;;;;;;;;;4976241;28;20185;-84
2021/07/22 13:29:11;;;;;;;2.38;2.17;;;;;;;;;;4975970;28;20224;-84
2021/07/22 13:31:39;;;;;;;2.03;1.92;;;;;;;;;;4976258;28;20223;-84
2021/07/22 13:34:08;;;;;;;2.72;2.53;;;;;;;;;;4977060;28;20181;-83
2021/07/22 13:36:57;;;;;;;2.95;2.65;;;;;;;;;;4976844;28;20240;-84
2021/07/22 13:39:26;;;;;;;2.40;2.20;;;;;;;;;;4976028;28;20255;-83
2021/07/22 13:42:23;;;;;;;2.22;2.10;;;;;;;;;;4977331;28;20236;-84
2021/07/22 13:44:50;;;;;;;2.92;2.72;;;;;;;;;;4976193;28;20184;-83
2021/07/22 13:47:59;;;;;;;2.10;2.00;;;;;;;;;;4975745;28;20316;-85
2021/07/22 13:50:28;;;;;;;2.00;1.90;;;;;;;;;;4975432;28;20648;-84
2021/07/22 13:53:04;;;;;;;2.33;2.13;;;;;;;;;;4975066;28;20187;-83
2021/07/22 13:55:32;;;;;;;2.13;1.92;;;;;;;;;;4975549;28;20282;-83
2021/07/22 13:58:32;;;;;;;2.60;2.40;;;;;;;;;;4975715;28;20220;-83
2021/07/22 14:01:21;;;;;;;2.70;2.38;;;;;;;;;;4976440;28;20205;-84
2021/07/22 14:03:55;;;;;;;2.13;1.88;;;;;;;;;;4975414;28;20203;-84
2021/07/22 14:06:23;;;;;;;1.92;1.83;;;;;;;;;;4974025;28;20201;-83
2021/07/22 14:08:51;;;;;;;2.42;2.22;;;;;;;;;;4974585;28;20228;-82
2021/07/22 14:11:18;;;;;;;2.38;2.15;;;;;;;;;;4973732;28;20224;-83
2021/07/22 14:13:46;;;;;;;3.15;2.90;;;;;;;;;;4973490;28;20206;-82
2021/07/22 14:16:13;;;;;;;2.47;2.30;;;;;;;;;;4974707;28;20212;-84
2021/07/22 14:18:40;;;;;;;3.58;2.78;;;;;;;;;;4974550;28;20224;-82
2021/07/22 14:21:08;;;;;;;2.60;2.38;;;;;;;;;;4974288;28;20204;-83
2021/07/22 14:23:37;;;;;;;2.63;2.42;;;;;;;;;;4973813;28;20279;-83
2021/07/22 14:26:05;;;;;;;2.40;2.20;;;;;;;;;;4974527;28;20196;-83
2021/07/22 14:28:32;;;;;;;2.58;2.38;;;;;;;;;;4975398;28;20228;-82
2021/07/22 14:31:00;;;;;;;2.10;2.00;;;;;;;;;;4974592;28;20211;-83
2021/07/22 14:33:28;;;;;;;2.22;2.03;;;;;;;;;;4974466;28;20199;-83
2021/07/22 14:35:55;;;;;;;2.22;2.03;;;;;;;;;;4973901;28;20193;-83
2021/07/22 14:38:24;;;;;;;2.15;1.95;;;;;;;;;;4974959;28;20224;-84
2021/07/22 14:40:53;;;;;;;2.35;2.15;;;;;;;;;;4973988;28;20294;-82
2021/07/22 14:43:20;;;;;;;2.20;2.00;;;;;;;;;;4973588;28;20212;-83
2021/07/22 14:45:48;;;;;;;3.00;2.78;;;;;;;;;;4973547;28;20219;-83
2021/07/22 14:48:17;;;;;;;2.97;2.78;;;;;;;;;;4973755;28;20227;-83
2021/07/22 14:50:44;;;;;;;4.40;2.90;;;;;;;;;;4974237;28;20196;-83
2021/07/22 14:53:12;;;;;;;2.92;2.72;;;;;;;;;;4973632;28;20220;-83
2021/07/22 14:55:39;;;;;;;2.53;2.33;;;;;;;;;;4974073;28;20223;-84
2021/07/22 14:58:08;;;;;;;2.40;2.20;;;;;;;;;;4974002;28;21010;-84
2021/07/22 15:00:35;;;;;;;2.88;2.67;;;;;;;;;;4973605;28;20212;-83
2021/07/22 15:03:04;;;;;;;3.85;3.45;;;;;;;;;;4973312;28;20192;-83
2021/07/22 15:05:32;;;;;;;2.88;2.67;;;;;;;;;;4973638;28;20192;-82
2021/07/22 15:07:59;;;;;;;1.90;1.80;;;;;;;;;;4973085;28;20220;-82
2021/07/22 15:10:27;;;;;;;2.42;2.22;;;;;;;;;;4973379;28;20192;-83
2021/07/22 15:12:54;;;;;;;2.30;2.10;;;;;;;;;;4973211;28;20208;-83
2021/07/22 15:15:24;;;;;;;2.33;2.13;;;;;;;;;;4973029;28;20208;-82
2021/07/22 15:17:51;;;;;;;2.30;1.90;;;;;;;;;;4973292;28;20230;-83
2021/07/22 15:20:19;;;;;;;3.50;1.90;;;;;;;;;;4973251;28;20199;-83
2021/07/22 15:22:46;;;;;;;3.05;2.75;;;;;;;;;;4973049;28;20189;-82
2021/07/22 15:25:14;;;;;;;3.90;3.50;;;;;;;;;;4972944;28;20204;-83
2021/07/22 15:27:42;;;;;;;3.15;2.95;;;;;;;;;;4972895;28;20665;-83